Terminal Aerodrome Forecast
Issued by NWS Charleston, WV

Current Version | Previous Version | Text Only | Print | Product List | Glossary Off
Versions: 1 2 3 4 5 6 7 8 9 10 11 12 13 14 15 16 17 18 19 20 21

000
FTUS41 KRLX 222340
TAFPKB
TAF
KPKB 222340Z 2300/2324 35005KT P6SM VCSH BKN060
     FM230200 00000KT P6SM SCT200
     FM230800 00000KT 3SM BR SCT200
     FM230900 00000KT 1SM BR BKN001
     FM231200 00000KT 4SM BR SCT250
     FM231300 34004KT P6SM SCT250=

USA.gov is the U.S. government's official web portal to all federal, state and local government web resources and services.